createdAt,value
2023-02-01T00:00:55.935Z,1.17
2023-02-01T00:01:55.902Z,1.33
2023-02-01T00:02:55.912Z,1.33
2023-02-01T00:03:55.961Z,1.33
2023-02-01T00:04:55.916Z,1.5
2023-02-01T00:05:55.910Z,1.33
2023-02-01T00:06:55.904Z,1.33
2023-02-01T00:07:55.907Z,1.06
2023-02-01T00:08:55.941Z,0.44
2023-02-01T00:09:55.909Z,0.72
2023-02-01T00:10:55.917Z,0.44
2023-02-01T00:11:55.907Z,0.72
2023-02-01T00:12:55.913Z,0.72
2023-02-01T00:13:55.915Z,0.89
2023-02-01T00:14:55.911Z,0.72
2023-02-01T00:15:55.938Z,0.44
2023-02-01T00:16:55.958Z,0.89
2023-02-01T00:17:55.918Z,0.44
2023-02-01T00:18:55.916Z,0.61
2023-02-01T00:19:55.917Z,0.72
2023-02-01T00:20:55.924Z,0.72
2023-02-01T00:21:55.920Z,0.61
2023-02-01T00:22:55.928Z,0.44
2023-02-01T00:23:55.917Z,0.89
2023-02-01T00:24:55.931Z,0.61
2023-02-01T00:25:55.927Z,0.89
2023-02-01T00:26:55.964Z,0.89
2023-02-01T00:27:55.924Z,0.72
2023-02-01T00:28:55.928Z,0.89
2023-02-01T00:29:55.946Z,0.89
2023-02-01T00:30:55.982Z,0.89
2023-02-01T00:31:55.996Z,0.61
2023-02-01T00:32:55.950Z,0.72
2023-02-01T00:33:55.929Z,0.72
2023-02-01T00:34:55.941Z,0.44
2023-02-01T00:35:55.926Z,0.44
2023-02-01T00:36:55.933Z,0.61
2023-02-01T00:37:55.946Z,0.72
2023-02-01T00:38:55.931Z,0.89
2023-02-01T00:39:55.947Z,0.28
2023-02-01T00:40:55.938Z,0.72
2023-02-01T00:41:55.938Z,0.89
2023-02-01T00:42:55.931Z,0.89
2023-02-01T00:43:55.932Z,0.89
2023-02-01T00:44:55.938Z,1.17
2023-02-01T00:45:55.940Z,0.89
2023-02-01T00:46:55.987Z,1.17
2023-02-01T00:47:55.946Z,1.17
2023-02-01T00:48:55.967Z,0.89
2023-02-01T00:49:55.937Z,1.06
2023-02-01T00:50:55.938Z,0.89
2023-02-01T00:51:55.956Z,0.89
2023-02-01T00:52:55.965Z,0.44
2023-02-01T00:53:55.946Z,0.61
2023-02-01T00:54:55.951Z,0.72
2023-02-01T00:55:55.946Z,0.89
2023-02-01T00:56:55.946Z,0.28
2023-02-01T00:57:55.941Z,0.89
2023-02-01T00:58:55.949Z,0.72
2023-02-01T00:59:55.944Z,0.72
2023-02-01T01:00:56.022Z,0.28
2023-02-01T01:01:56.030Z,0.44
2023-02-01T01:02:55.947Z,0.28
2023-02-01T01:03:55.947Z,0.28
2023-02-01T01:04:55.983Z,0.17
2023-02-01T01:05:55.950Z,0.17
2023-02-01T01:06:55.944Z,0.17
2023-02-01T01:07:55.969Z,0
2023-02-01T01:08:55.979Z,-0.17
2023-02-01T01:09:55.979Z,0.28
2023-02-01T01:10:55.958Z,0
2023-02-01T01:11:55.964Z,0.61
2023-02-01T01:12:55.955Z,0.44
2023-02-01T01:13:55.985Z,0.61
2023-02-01T01:14:55.952Z,0.44
2023-02-01T01:15:55.967Z,0.28
2023-02-01T01:16:55.964Z,0.61
2023-02-01T01:17:55.969Z,-0.17
2023-02-01T01:18:55.966Z,0.28
2023-02-01T01:19:57.209Z,0.17
2023-02-01T01:20:55.983Z,0.72
2023-02-01T01:21:55.963Z,0.44
2023-02-01T01:22:55.967Z,0.61
2023-02-01T01:23:55.959Z,0.61
2023-02-01T01:24:55.960Z,0.44
2023-02-01T01:25:55.963Z,0.17
2023-02-01T01:26:56.028Z,0
2023-02-01T01:27:55.967Z,0
2023-02-01T01:28:55.968Z,-0.17
2023-02-01T01:29:55.992Z,-0.17
2023-02-01T01:30:56.025Z,0
2023-02-01T01:31:56.005Z,-0.39
2023-02-01T01:32:55.969Z,-0.28
2023-02-01T01:33:55.987Z,-0.39
2023-02-01T01:34:55.986Z,-0.17
2023-02-01T01:35:55.975Z,0
2023-02-01T01:36:56.011Z,-0.28
2023-02-01T01:37:55.984Z,0
2023-02-01T01:38:55.981Z,0.17
2023-02-01T01:39:55.985Z,0
2023-02-01T01:40:55.982Z,0.28
2023-02-01T01:41:55.979Z,0.44
2023-02-01T01:42:55.980Z,0.28
2023-02-01T01:43:55.990Z,0.28
2023-02-01T01:44:55.987Z,0.44
2023-02-01T01:45:56.035Z,0.44
2023-02-01T01:46:56.011Z,0.44
2023-02-01T01:47:55.995Z,0.17
2023-02-01T01:48:55.981Z,0.28
2023-02-01T01:49:55.983Z,0.61
2023-02-01T01:50:55.976Z,0.61
2023-02-01T01:51:55.986Z,0.61
2023-02-01T01:52:56.011Z,0.17
2023-02-01T01:53:55.998Z,0.44
2023-02-01T01:54:55.978Z,0.44
2023-02-01T01:55:55.978Z,0.61
2023-02-01T01:56:56.001Z,0.61
2023-02-01T01:57:55.992Z,0.44
2023-02-01T01:58:55.995Z,0.61
2023-02-01T01:59:55.992Z,0.61
2023-02-01T02:00:56.046Z,0
2023-02-01T02:01:56.052Z,-0.39
2023-02-01T02:02:55.987Z,-0.39
2023-02-01T02:03:55.988Z,-0.39
2023-02-01T02:04:56.003Z,-0.56
2023-02-01T02:05:55.994Z,-0.56
2023-02-01T02:06:55.986Z,-0.17
2023-02-01T02:07:56.024Z,-0.28
2023-02-01T02:08:56.029Z,0
2023-02-01T02:10:00.727Z,-0.28
2023-02-01T02:10:56.002Z,-0.17
2023-02-01T02:11:55.992Z,-0.28
2023-02-01T02:12:55.989Z,-0.28
2023-02-01T02:13:56.008Z,-0.17
2023-02-01T02:14:55.995Z,0
2023-02-01T02:15:56.006Z,-0.39
2023-02-01T02:16:56.018Z,-0.17
2023-02-01T02:17:55.997Z,-0.17
2023-02-01T02:18:56.009Z,-0.28
2023-02-01T02:19:56.001Z,-0.28
2023-02-01T02:20:55.994Z,-0.39
2023-02-01T02:21:55.994Z,-0.39
2023-02-01T02:22:56.003Z,-0.17
2023-02-01T02:23:55.997Z,-0.17
2023-02-01T02:24:56.030Z,-0.17
2023-02-01T02:25:56.004Z,0
2023-02-01T02:26:56.016Z,-0.17
2023-02-01T02:27:56.002Z,-0.17
2023-02-01T02:28:56.001Z,-0.17
2023-02-01T02:29:56.010Z,-0.17
2023-02-01T02:30:56.098Z,-0.28
2023-02-01T02:31:56.064Z,0
2023-02-01T02:32:56.005Z,0
2023-02-01T02:33:56.028Z,0
2023-02-01T02:34:56.021Z,0
2023-02-01T02:35:56.014Z,0
2023-02-01T02:36:56.022Z,-0.28
2023-02-01T02:37:56.002Z,-0.39
2023-02-01T02:38:56.013Z,0.17
2023-02-01T02:39:56.021Z,0
2023-02-01T02:40:56.038Z,0
2023-02-01T02:41:56.001Z,-0.28
2023-02-01T02:42:57.543Z,-0.17
2023-02-01T02:43:56.014Z,-0.28
2023-02-01T02:44:56.012Z,-0.56
2023-02-01T02:45:56.031Z,-0.67
2023-02-01T02:46:56.025Z,-0.17
2023-02-01T02:47:56.015Z,-0.56
2023-02-01T02:48:56.016Z,-0.17
2023-02-01T02:49:56.004Z,-0.28
2023-02-01T02:50:56.024Z,-0.17
2023-02-01T02:51:56.012Z,0
2023-02-01T02:52:56.016Z,-0.17
2023-02-01T02:53:56.020Z,-0.17
2023-02-01T02:54:56.024Z,-0.17
2023-02-01T02:55:56.019Z,-0.17
2023-02-01T02:56:56.028Z,0
2023-02-01T02:57:56.016Z,-0.39
2023-02-01T02:58:56.012Z,-0.56
2023-02-01T02:59:56.021Z,0
2023-02-01T03:00:56.082Z,-0.17
2023-02-01T03:01:56.022Z,-0.28
2023-02-01T03:02:56.063Z,-0.28
2023-02-01T03:03:56.018Z,-0.83
2023-02-01T03:04:56.039Z,-0.39
2023-02-01T03:05:56.027Z,-0.39
2023-02-01T03:06:56.017Z,-0.39
2023-02-01T03:07:56.027Z,-0.56
2023-02-01T03:08:56.023Z,-0.67
2023-02-01T03:09:56.035Z,-0.39
2023-02-01T03:10:56.013Z,-0.56
2023-02-01T03:11:56.034Z,-0.39
2023-02-01T03:12:56.046Z,-0.39
2023-02-01T03:13:56.008Z,-0.56
2023-02-01T03:14:56.017Z,-0.39
2023-02-01T03:15:56.032Z,-0.39
2023-02-01T03:16:56.035Z,-0.39
2023-02-01T03:17:56.023Z,-0.39
2023-02-01T03:18:56.024Z,-0.39
2023-02-01T03:19:56.032Z,-0.39
2023-02-01T03:20:56.031Z,-0.39
2023-02-01T03:21:56.030Z,-0.39
2023-02-01T03:22:56.032Z,-0.28
2023-02-01T03:23:56.018Z,-0.83
2023-02-01T03:24:56.045Z,-0.39
2023-02-01T03:25:56.037Z,-0.28
2023-02-01T03:26:56.073Z,-0.17
2023-02-01T03:27:56.029Z,-0.28
2023-02-01T03:28:56.056Z,0
2023-02-01T03:29:56.031Z,0
2023-02-01T03:30:56.076Z,-0.28
2023-02-01T03:31:56.134Z,-0.28
2023-02-01T03:32:56.025Z,-0.28
2023-02-01T03:33:56.043Z,-0.17
2023-02-01T03:34:56.032Z,-0.17
2023-02-01T03:35:56.023Z,-0.39
2023-02-01T03:36:56.030Z,-0.39
2023-02-01T03:37:56.034Z,-0.39
2023-02-01T03:38:56.033Z,-1.28
2023-02-01T03:39:56.038Z,-1.28
2023-02-01T03:40:56.045Z,-1.56
2023-02-01T03:41:56.031Z,-1
2023-02-01T03:42:56.051Z,-0.83
2023-02-01T03:43:56.047Z,-0.67
2023-02-01T03:44:56.060Z,-0.56
2023-02-01T03:45:56.051Z,-0.39
2023-02-01T03:46:56.050Z,-0.56
2023-02-01T03:47:56.037Z,-0.56
2023-02-01T03:48:56.054Z,-0.39
2023-02-01T03:49:56.029Z,-0.56
2023-02-01T03:50:56.047Z,-0.39
2023-02-01T03:51:56.182Z,-0.28
2023-02-01T03:52:56.049Z,-0.39
2023-02-01T03:53:56.039Z,-0.39
2023-02-01T03:54:56.041Z,-0.17
2023-02-01T03:55:56.040Z,-0.28
2023-02-01T03:56:56.078Z,-0.28
2023-02-01T03:57:56.045Z,-0.28
2023-02-01T03:58:56.047Z,-0.56
2023-02-01T03:59:56.050Z,-0.39
2023-02-01T04:00:56.163Z,-0.39
2023-02-01T04:01:56.050Z,-0.39
2023-02-01T04:02:56.043Z,-0.39
2023-02-01T04:03:56.040Z,-0.39
2023-02-01T04:04:56.041Z,-0.39
2023-02-01T04:05:56.059Z,-0.39
2023-02-01T04:06:56.048Z,-0.39
2023-02-01T04:07:56.052Z,-0.39
2023-02-01T04:08:56.040Z,-0.56
2023-02-01T04:09:56.050Z,-0.56
2023-02-01T04:10:56.063Z,-0.56
2023-02-01T04:11:56.039Z,-0.56
2023-02-01T04:12:56.037Z,-0.39
2023-02-01T04:13:56.061Z,-0.56
2023-02-01T04:14:56.048Z,-0.56
2023-02-01T04:15:56.053Z,-0.83
2023-02-01T04:16:56.121Z,-0.39
2023-02-01T04:17:56.041Z,-0.67
2023-02-01T04:18:56.054Z,-0.67
2023-02-01T04:19:56.055Z,-0.67
2023-02-01T04:20:56.060Z,-0.83
2023-02-01T04:21:56.074Z,-0.67
2023-02-01T04:22:56.080Z,-0.83
2023-02-01T04:23:56.067Z,-0.83
2023-02-01T04:24:56.061Z,-0.39
2023-02-01T04:25:56.057Z,-1
2023-02-01T04:26:56.055Z,-0.28
2023-02-01T04:27:56.058Z,-0.39
2023-02-01T04:28:56.051Z,-0.56
2023-02-01T04:29:58.357Z,-0.39
2023-02-01T04:30:56.165Z,-0.39
2023-02-01T04:31:56.088Z,-0.67
2023-02-01T04:32:56.091Z,-0.39
2023-02-01T04:33:56.063Z,-0.56
2023-02-01T04:34:56.063Z,-0.39
2023-02-01T04:35:56.077Z,-1
2023-02-01T04:36:56.059Z,-0.28
2023-02-01T04:37:56.070Z,-0.17
2023-02-01T04:38:56.053Z,-0.28
2023-02-01T04:39:56.054Z,-0.28
2023-02-01T04:40:56.072Z,-0.39
2023-02-01T04:41:56.061Z,-0.28
2023-02-01T04:42:56.056Z,-0.28
2023-02-01T04:43:56.066Z,-0.17
2023-02-01T04:44:56.046Z,-0.28
2023-02-01T04:45:56.117Z,-0.28
2023-02-01T04:46:56.059Z,-0.17
2023-02-01T04:47:56.040Z,-0.17
2023-02-01T04:48:56.082Z,-0.67
2023-02-01T04:49:56.056Z,-0.39
2023-02-01T04:50:56.056Z,-0.56
2023-02-01T04:51:56.055Z,-1
2023-02-01T04:52:56.070Z,-0.83
2023-02-01T04:53:56.054Z,-1
2023-02-01T04:54:57.848Z,-1.11
2023-02-01T04:55:56.069Z,-0.83
2023-02-01T04:56:56.073Z,-1
2023-02-01T04:57:56.055Z,-0.83
2023-02-01T04:58:56.049Z,-0.83
2023-02-01T04:59:56.056Z,-1
2023-02-01T05:00:56.081Z,-1.11
2023-02-01T05:01:56.078Z,-1
2023-02-01T05:02:56.076Z,-1
2023-02-01T05:03:56.059Z,-1.44
2023-02-01T05:04:56.101Z,-1
2023-02-01T05:05:56.072Z,-0.83
2023-02-01T05:06:56.063Z,-0.83
2023-02-01T05:07:56.053Z,-0.83
2023-02-01T05:08:56.064Z,-0.83
2023-02-01T05:09:56.063Z,-0.83
2023-02-01T05:10:56.064Z,-0.83
2023-02-01T05:11:56.064Z,-1
2023-02-01T05:12:56.062Z,-0.83
2023-02-01T05:13:56.076Z,-0.83
2023-02-01T05:14:56.064Z,-0.83
2023-02-01T05:15:56.109Z,-0.67
2023-02-01T05:16:56.065Z,-0.56
2023-02-01T05:17:56.064Z,-0.56
2023-02-01T05:18:56.064Z,-0.67
2023-02-01T05:19:56.079Z,-1
2023-02-01T05:20:56.091Z,-0.83
2023-02-01T05:21:56.058Z,-0.83
2023-02-01T05:22:56.063Z,-0.83
2023-02-01T05:23:56.073Z,-1
2023-02-01T05:24:56.079Z,-0.56
2023-02-01T05:25:56.071Z,-1
2023-02-01T05:26:56.071Z,-1.11
2023-02-01T05:27:56.065Z,-0.83
2023-02-01T05:28:56.079Z,-0.83
2023-02-01T05:29:56.077Z,-1
2023-02-01T05:30:56.196Z,-0.83
2023-02-01T05:31:56.185Z,-1.28
2023-02-01T05:32:56.060Z,-1
2023-02-01T05:33:56.074Z,-0.83
2023-02-01T05:34:56.068Z,-0.83
2023-02-01T05:35:56.063Z,-0.67
2023-02-01T05:36:56.091Z,-0.67
2023-02-01T05:37:56.098Z,-1
2023-02-01T05:38:56.073Z,-0.83
2023-02-01T05:39:56.077Z,-0.67
2023-02-01T05:40:56.079Z,-0.83
2023-02-01T05:41:56.066Z,-0.83
2023-02-01T05:42:56.078Z,-1
2023-02-01T05:43:56.074Z,-0.83
2023-02-01T05:44:56.079Z,-1
2023-02-01T05:45:56.115Z,-1.28
2023-02-01T05:46:56.070Z,-1
2023-02-01T05:47:56.075Z,-0.83
2023-02-01T05:48:56.094Z,-0.56
2023-02-01T05:49:56.082Z,-0.83
2023-02-01T05:50:56.064Z,-0.83
2023-02-01T05:51:56.074Z,-1.28
2023-02-01T05:52:56.108Z,-0.83
2023-02-01T05:53:56.076Z,-0.83
2023-02-01T05:54:56.083Z,-0.56
2023-02-01T05:55:56.062Z,-1
2023-02-01T05:56:56.076Z,-0.56
2023-02-01T05:57:56.068Z,-0.39
2023-02-01T05:58:56.072Z,-0.39
2023-02-01T05:59:56.108Z,-0.39
2023-02-01T06:00:56.077Z,-0.39
2023-02-01T06:01:56.081Z,-0.39
2023-02-01T06:02:56.128Z,-0.56
2023-02-01T06:03:56.165Z,-0.83
2023-02-01T06:04:56.080Z,-0.56
2023-02-01T06:05:56.073Z,-0.39
2023-02-01T06:06:56.101Z,-1
2023-02-01T06:07:56.068Z,-0.67
2023-02-01T06:08:56.188Z,-1
2023-02-01T06:09:56.074Z,-0.83
2023-02-01T06:10:56.075Z,-0.83
2023-02-01T06:11:56.081Z,-1.11
2023-02-01T06:12:56.075Z,-1.44
2023-02-01T06:13:56.085Z,-1.56
2023-02-01T06:14:56.091Z,-1.56
2023-02-01T06:15:56.117Z,-1.28
2023-02-01T06:16:56.082Z,-1.44
2023-02-01T06:17:56.086Z,-1.44
2023-02-01T06:18:56.093Z,-1.28
2023-02-01T06:19:56.078Z,-1.44
2023-02-01T06:20:56.100Z,-1.44
2023-02-01T06:21:56.086Z,-1.44
2023-02-01T06:22:56.108Z,-2
2023-02-01T06:23:56.094Z,-1.56
2023-02-01T06:24:56.176Z,-1.83
2023-02-01T06:25:56.090Z,-1.28
2023-02-01T06:26:56.096Z,-0.67
2023-02-01T06:27:56.108Z,-1
2023-02-01T06:28:56.116Z,-1
2023-02-01T06:29:56.113Z,-1.44
2023-02-01T06:30:56.174Z,-1
2023-02-01T06:31:56.189Z,-0.83
2023-02-01T06:32:56.113Z,-1.56
2023-02-01T06:33:56.113Z,-0.83
2023-02-01T06:34:56.119Z,-0.83
2023-02-01T06:35:56.125Z,-0.83
2023-02-01T06:36:56.114Z,-1
2023-02-01T06:37:56.128Z,-0.83
2023-02-01T06:38:56.126Z,-0.67
2023-02-01T06:39:56.127Z,-0.83
2023-02-01T06:40:56.246Z,-0.39
2023-02-01T06:41:56.134Z,-0.39
2023-02-01T06:42:56.129Z,-0.83
2023-02-01T06:43:56.126Z,-0.56
2023-02-01T06:44:56.138Z,-0.67
2023-02-01T06:45:56.146Z,-0.39
2023-02-01T06:46:56.220Z,-0.56
2023-02-01T06:47:56.139Z,-0.39
2023-02-01T06:48:56.129Z,-0.39
2023-02-01T06:49:56.120Z,-0.39
2023-02-01T06:50:56.129Z,-0.28
2023-02-01T06:51:56.140Z,-0.28
2023-02-01T06:52:56.155Z,-0.17
2023-02-01T06:53:56.141Z,-0.17
2023-02-01T06:54:56.142Z,-0.39
2023-02-01T06:55:56.153Z,-0.39
2023-02-01T06:56:56.171Z,-0.39
2023-02-01T06:57:56.145Z,-0.39
2023-02-01T06:58:56.146Z,-0.17
2023-02-01T06:59:56.140Z,-0.17
2023-02-01T07:00:56.240Z,-0.17
2023-02-01T07:01:56.214Z,-0.17
2023-02-01T07:02:56.163Z,-0.28
2023-02-01T07:03:56.143Z,-0.17
2023-02-01T07:04:56.139Z,-0.17
2023-02-01T07:05:56.145Z,-0.17
2023-02-01T07:06:56.166Z,0
2023-02-01T07:07:56.155Z,0
2023-02-01T07:08:56.153Z,-0.39
2023-02-01T07:09:56.152Z,-0.39
2023-02-01T07:10:56.166Z,-0.39
2023-02-01T07:11:56.168Z,-0.39
2023-02-01T07:12:56.202Z,0
2023-02-01T07:13:56.159Z,0
2023-02-01T07:14:56.165Z,0
2023-02-01T07:15:56.181Z,-0.17
2023-02-01T07:16:56.163Z,-0.17
2023-02-01T07:17:56.180Z,0
2023-02-01T07:18:56.187Z,0.17
2023-02-01T07:19:56.168Z,0.44
2023-02-01T07:20:56.179Z,0.89
2023-02-01T07:21:56.176Z,1.06
2023-02-01T07:22:56.173Z,1.33
2023-02-01T07:23:56.195Z,0.44
2023-02-01T07:24:56.171Z,-0.17
2023-02-01T07:25:56.182Z,0.17
2023-02-01T07:26:56.204Z,-0.28
2023-02-01T07:27:56.200Z,-0.28
2023-02-01T07:28:56.200Z,-0.28
2023-02-01T07:29:56.186Z,0.44
2023-02-01T07:30:56.221Z,1.06
2023-02-01T07:31:56.187Z,1.33
2023-02-01T07:32:56.242Z,1.72
2023-02-01T07:33:56.182Z,1.89
2023-02-01T07:34:56.182Z,1.89
2023-02-01T07:35:56.185Z,2
2023-02-01T07:36:56.192Z,2.28
2023-02-01T07:37:56.208Z,2.17
2023-02-01T07:38:56.742Z,2.17
2023-02-01T07:39:56.239Z,2.17
2023-02-01T07:40:56.197Z,2
2023-02-01T07:41:56.210Z,2
2023-02-01T07:42:56.207Z,2
2023-02-01T07:43:56.203Z,2.17
2023-02-01T07:44:56.226Z,2
2023-02-01T07:45:56.231Z,2
2023-02-01T07:46:56.210Z,2
2023-02-01T07:47:56.205Z,1.61
2023-02-01T07:48:56.210Z,1.5
2023-02-01T07:49:56.220Z,1.72
2023-02-01T07:50:56.199Z,1.61
2023-02-01T07:51:56.221Z,1.61
2023-02-01T07:52:56.208Z,1.61
2023-02-01T07:53:56.501Z,1.61
2023-02-01T07:54:56.214Z,1.5
2023-02-01T07:55:56.215Z,1.72
2023-02-01T07:56:56.219Z,1.33
2023-02-01T07:57:56.230Z,0.72
2023-02-01T07:58:56.228Z,0.44
2023-02-01T07:59:56.219Z,1.17
2023-02-01T08:00:56.342Z,1.72
2023-02-01T08:01:56.267Z,1.72
2023-02-01T08:02:56.224Z,1.72
2023-02-01T08:03:56.222Z,1.72
2023-02-01T08:04:56.226Z,2
2023-02-01T08:05:56.238Z,1.72
2023-02-01T08:06:56.219Z,1.72
2023-02-01T08:07:56.228Z,1.61
2023-02-01T08:08:56.242Z,1.72
2023-02-01T08:09:56.232Z,1.5
2023-02-01T08:10:56.232Z,1.5
2023-02-01T08:11:56.243Z,1.5
2023-02-01T08:12:56.234Z,1.33
2023-02-01T08:13:56.278Z,1.06
2023-02-01T08:14:56.228Z,0.89
2023-02-01T08:15:56.235Z,1.06
2023-02-01T08:16:56.268Z,0.72
2023-02-01T08:17:56.229Z,1.06
2023-02-01T08:18:56.249Z,1.17
2023-02-01T08:19:56.234Z,1.5
2023-02-01T08:20:56.248Z,1.72
2023-02-01T08:21:56.239Z,1.06
2023-02-01T08:22:56.249Z,1.06
2023-02-01T08:23:56.237Z,1.61
2023-02-01T08:24:56.250Z,1.72
2023-02-01T08:25:56.238Z,1.61
2023-02-01T08:26:56.338Z,1.89
2023-02-01T08:27:56.240Z,2
2023-02-01T08:28:56.257Z,1.61
2023-02-01T08:29:56.238Z,1.17
2023-02-01T08:30:56.270Z,1.72
2023-02-01T08:31:56.274Z,1.72
2023-02-01T08:32:56.270Z,2.17
2023-02-01T08:33:56.245Z,2.17
2023-02-01T08:34:56.241Z,1.72
2023-02-01T08:35:56.261Z,1.89
2023-02-01T08:36:56.252Z,2
2023-02-01T08:37:56.260Z,2
2023-02-01T08:38:56.284Z,2.17
2023-02-01T08:39:56.280Z,2.44
2023-02-01T08:40:56.266Z,2.17
2023-02-01T08:41:56.256Z,1.89
2023-02-01T08:42:56.251Z,1.72
2023-02-01T08:43:56.276Z,1.5
2023-02-01T08:44:56.259Z,1.61
2023-02-01T08:45:56.989Z,1.72
2023-02-01T08:46:56.248Z,1.72
2023-02-01T08:47:56.242Z,1.72
2023-02-01T08:48:56.273Z,1.5
2023-02-01T08:49:56.253Z,1.72
2023-02-01T08:50:56.250Z,1.5
2023-02-01T08:51:58.403Z,1.06
2023-02-01T08:52:56.256Z,1.33
2023-02-01T08:53:56.254Z,1.33
2023-02-01T08:54:56.266Z,1.06
2023-02-01T08:55:56.272Z,0.89
2023-02-01T08:56:56.296Z,1.06
2023-02-01T08:57:56.269Z,0.89
2023-02-01T08:58:56.257Z,0.61
2023-02-01T08:59:56.307Z,1.61
2023-02-01T09:00:56.316Z,1.5
2023-02-01T09:01:56.259Z,1.72
2023-02-01T09:02:56.251Z,1.72
2023-02-01T09:03:56.288Z,1.61
2023-02-01T09:04:56.287Z,1.61
2023-02-01T09:05:56.254Z,1.89
2023-02-01T09:06:56.258Z,2.17
2023-02-01T09:07:56.254Z,1.89
2023-02-01T09:08:56.261Z,1.89
2023-02-01T09:09:56.256Z,1.72
2023-02-01T09:10:56.260Z,1.72
2023-02-01T09:11:56.255Z,1.72
2023-02-01T09:12:56.258Z,1.33
2023-02-01T09:13:56.270Z,1.33
2023-02-01T09:14:56.266Z,0.72
2023-02-01T09:15:56.295Z,0.89
2023-02-01T09:16:56.272Z,1.33
2023-02-01T09:17:56.279Z,1.17
2023-02-01T09:19:14.799Z,1.33
2023-02-01T09:19:56.272Z,1.61
2023-02-01T09:20:56.294Z,1.61
2023-02-01T09:21:56.252Z,1.61
2023-02-01T09:22:56.261Z,1.72
2023-02-01T09:23:56.276Z,2
2023-02-01T09:24:56.283Z,2
2023-02-01T09:25:56.272Z,1.72
2023-02-01T09:26:56.317Z,1.89
2023-02-01T09:27:56.285Z,1.89
2023-02-01T09:28:56.257Z,1.72
2023-02-01T09:29:56.277Z,1.89
2023-02-01T09:30:56.343Z,1.61
2023-02-01T09:32:03.119Z,1.89
2023-02-01T09:32:56.262Z,1.61
2023-02-01T09:33:56.264Z,1.61
2023-02-01T09:34:56.257Z,1.89
2023-02-01T09:35:56.255Z,2
2023-02-01T09:36:56.295Z,2.28
2023-02-01T09:37:56.292Z,2
2023-02-01T09:38:56.272Z,1.89
2023-02-01T09:39:56.269Z,2.28
2023-02-01T09:40:56.278Z,2.17
2023-02-01T09:41:56.258Z,2
2023-02-01T09:42:56.264Z,2.44
2023-02-01T09:43:56.270Z,2.61
2023-02-01T09:44:56.261Z,2.72
2023-02-01T09:45:56.293Z,2.72
2023-02-01T09:46:56.281Z,2.61
2023-02-01T09:47:56.286Z,2.17
2023-02-01T09:48:56.278Z,2.61
2023-02-01T09:49:56.277Z,2.72
2023-02-01T09:50:56.307Z,2.72
2023-02-01T09:51:56.263Z,2.72
2023-02-01T09:52:56.316Z,3
2023-02-01T09:53:56.277Z,3
2023-02-01T09:54:56.275Z,2.89
2023-02-01T09:55:56.278Z,2.61
2023-02-01T09:56:56.276Z,3
2023-02-01T09:57:56.276Z,3.33
2023-02-01T09:58:56.282Z,3
2023-02-01T09:59:57.860Z,2.89
2023-02-01T10:00:56.303Z,3.17
2023-02-01T10:01:56.283Z,2.89
2023-02-01T10:02:56.293Z,3
2023-02-01T10:03:56.312Z,3.33
2023-02-01T10:04:56.303Z,3
2023-02-01T10:05:56.305Z,2.44
2023-02-01T10:06:56.307Z,2.28
2023-02-01T10:07:56.313Z,2.44
2023-02-01T10:08:56.347Z,2
2023-02-01T10:09:56.310Z,2.44
2023-02-01T10:10:56.327Z,2
2023-02-01T10:11:56.326Z,2.28
2023-02-01T10:12:56.313Z,2.61
2023-02-01T10:13:56.314Z,2.72
2023-02-01T10:14:56.301Z,3
2023-02-01T10:15:56.502Z,3
2023-02-01T10:16:56.367Z,2.89
2023-02-01T10:17:57.997Z,3.17
2023-02-01T10:18:56.340Z,3.17
2023-02-01T10:19:56.342Z,3.44
2023-02-01T10:20:56.332Z,3.83
2023-02-01T10:21:56.315Z,3.72
2023-02-01T10:23:16.193Z,3.72
2023-02-01T10:23:58.879Z,3.44
2023-02-01T10:24:56.347Z,3.83
2023-02-01T10:25:56.337Z,3.72
2023-02-01T10:26:56.442Z,3.72
2023-02-01T10:27:56.328Z,3.72
2023-02-01T10:28:56.329Z,3
2023-02-01T10:29:56.327Z,2.72
2023-02-01T10:30:56.452Z,3.17
2023-02-01T10:31:56.482Z,3.17
2023-02-01T10:32:56.335Z,2.89
2023-02-01T10:33:56.334Z,2.89
2023-02-01T10:34:56.352Z,2.72
2023-02-01T10:35:56.344Z,3.17
2023-02-01T10:36:56.343Z,2.61
2023-02-01T10:37:56.334Z,2.44
2023-02-01T10:38:56.343Z,2.72
2023-02-01T10:39:56.352Z,2.72
2023-02-01T10:40:56.395Z,3
2023-02-01T10:41:56.350Z,3.17
2023-02-01T10:42:56.347Z,3.17
2023-02-01T10:43:56.349Z,3.17
2023-02-01T10:44:56.348Z,3.33
2023-02-01T10:45:56.346Z,3.17
2023-02-01T10:46:56.353Z,3
2023-02-01T10:47:56.349Z,3.44
2023-02-01T10:48:56.362Z,3.44
2023-02-01T10:49:56.361Z,3.44
2023-02-01T10:50:56.353Z,2.89
2023-02-01T10:51:56.356Z,3.17
2023-02-01T10:52:56.366Z,3.56
2023-02-01T10:53:56.352Z,3.56
2023-02-01T10:54:56.380Z,3.44
2023-02-01T10:55:56.366Z,3.17
2023-02-01T10:56:56.394Z,3.17
2023-02-01T10:57:56.375Z,3.33
2023-02-01T10:58:56.376Z,3.72
2023-02-01T10:59:56.369Z,4
2023-02-01T11:00:56.383Z,4.28
2023-02-01T11:01:59.560Z,3.72
2023-02-01T11:02:56.456Z,3.83
2023-02-01T11:03:56.385Z,3.83
2023-02-01T11:04:56.378Z,4
2023-02-01T11:05:56.395Z,4.28
2023-02-01T11:06:56.367Z,3.44
2023-02-01T11:07:56.381Z,3.44
2023-02-01T11:08:56.384Z,3.83
2023-02-01T11:09:56.375Z,3.83
2023-02-01T11:10:56.389Z,4.28
2023-02-01T11:11:56.389Z,4
2023-02-01T11:12:56.412Z,3.56
2023-02-01T11:13:56.396Z,4
2023-02-01T11:14:56.388Z,3.17
2023-02-01T11:15:57.233Z,3.44
2023-02-01T11:16:56.418Z,3.33
2023-02-01T11:17:56.388Z,3.44
2023-02-01T11:18:56.388Z,3.83
2023-02-01T11:19:56.400Z,3.83
2023-02-01T11:20:56.405Z,4.89
2023-02-01T11:21:56.404Z,4.89
2023-02-01T11:22:56.399Z,4.89
2023-02-01T11:23:56.392Z,4.89
2023-02-01T11:24:56.395Z,4.72
2023-02-01T11:25:56.414Z,3.56
2023-02-01T11:26:56.505Z,3.83
2023-02-01T11:27:56.404Z,5.33
2023-02-01T11:28:56.433Z,5.44
2023-02-01T11:29:56.418Z,5.83
2023-02-01T11:30:56.522Z,5.72
2023-02-01T11:31:56.435Z,5.44
2023-02-01T11:32:56.433Z,4.56
2023-02-01T11:33:56.411Z,5.33
2023-02-01T11:34:56.404Z,5.61
2023-02-01T11:35:56.413Z,5.72
2023-02-01T11:36:56.440Z,5
2023-02-01T11:37:56.407Z,4.89
2023-02-01T11:38:56.415Z,5.61
2023-02-01T11:39:56.409Z,5.44
2023-02-01T11:40:56.416Z,5.61
2023-02-01T11:41:56.428Z,5.17
2023-02-01T11:42:56.426Z,5.33
2023-02-01T11:43:56.437Z,4.72
2023-02-01T11:44:56.453Z,5.33
2023-02-01T11:45:56.426Z,5.17
2023-02-01T11:46:56.451Z,5
2023-02-01T11:47:56.418Z,5.61
2023-02-01T11:48:56.433Z,5.17
2023-02-01T11:49:56.424Z,4.89
2023-02-01T11:50:56.435Z,5.17
2023-02-01T11:51:56.440Z,5.44
2023-02-01T11:52:56.434Z,5.61
2023-02-01T11:53:56.435Z,5.33
2023-02-01T11:54:56.480Z,5
2023-02-01T11:55:56.452Z,4.28
2023-02-01T11:56:56.447Z,4.89
2023-02-01T11:57:56.447Z,4.56
2023-02-01T11:58:56.457Z,4.89
2023-02-01T11:59:57.224Z,4.89
2023-02-01T12:00:56.480Z,4.89
2023-02-01T12:01:56.526Z,4.72
2023-02-01T12:02:56.486Z,4.89
2023-02-01T12:03:56.459Z,4.89
2023-02-01T12:04:56.463Z,4.72
2023-02-01T12:05:56.469Z,4.72
2023-02-01T12:06:56.468Z,4.72
2023-02-01T12:07:56.449Z,4.72
2023-02-01T12:08:56.470Z,5
2023-02-01T12:09:56.464Z,5.17
2023-02-01T12:10:56.461Z,5.17
2023-02-01T12:11:56.471Z,4.89
2023-02-01T12:12:56.463Z,4.89
2023-02-01T12:13:56.469Z,4.56
2023-02-01T12:14:56.474Z,4.72
2023-02-01T12:15:56.468Z,4.89
2023-02-01T12:16:56.498Z,4.72
2023-02-01T12:17:56.478Z,4.72
2023-02-01T12:18:56.483Z,4.72
2023-02-01T12:19:56.981Z,5.17
2023-02-01T12:20:56.484Z,5
2023-02-01T12:21:56.487Z,4.89
2023-02-01T12:22:56.494Z,4.89
2023-02-01T12:23:56.498Z,5
2023-02-01T12:24:56.498Z,5
2023-02-01T12:25:56.484Z,4.89
2023-02-01T12:26:56.539Z,4.89
2023-02-01T12:27:56.488Z,4.72
2023-02-01T12:28:56.480Z,4.89
2023-02-01T12:29:56.497Z,4.72
2023-02-01T12:30:56.548Z,4.44
2023-02-01T12:31:56.526Z,4.56
2023-02-01T12:32:56.520Z,4.44
2023-02-01T12:33:56.495Z,4.72
2023-02-01T12:34:56.497Z,4.72
2023-02-01T12:35:56.520Z,4.72
2023-02-01T12:36:56.501Z,4.56
2023-02-01T12:37:56.574Z,4.44
2023-02-01T12:38:56.511Z,4.56
2023-02-01T12:39:56.504Z,4.89
2023-02-01T12:40:56.507Z,4.89
2023-02-01T12:41:56.516Z,4.72
2023-02-01T12:42:56.525Z,4.72
2023-02-01T12:43:56.502Z,4.72
2023-02-01T12:44:56.518Z,4.56
2023-02-01T12:45:56.541Z,5
2023-02-01T12:46:56.507Z,5
2023-02-01T12:47:56.531Z,4.56
2023-02-01T12:48:56.538Z,4.56
2023-02-01T12:49:56.509Z,4.72
2023-02-01T12:50:56.515Z,4.72
2023-02-01T12:51:56.515Z,4.89
2023-02-01T12:52:56.527Z,4.72
2023-02-01T12:53:56.538Z,4.89
2023-02-01T12:54:56.523Z,4.89
2023-02-01T12:55:56.518Z,5
2023-02-01T12:56:56.519Z,5
2023-02-01T12:57:56.525Z,5.17
2023-02-01T12:58:56.517Z,5.33
2023-02-01T12:59:56.528Z,5.33
2023-02-01T13:00:56.536Z,5.33
2023-02-01T13:01:56.542Z,5.61
2023-02-01T13:02:56.531Z,5.33
2023-02-01T13:03:56.529Z,5.17
2023-02-01T13:04:56.563Z,5.44
2023-02-01T13:05:56.527Z,5.44
2023-02-01T13:06:56.529Z,5.33
2023-02-01T13:07:56.538Z,5.17
2023-02-01T13:08:56.539Z,5
2023-02-01T13:09:56.544Z,5.17
2023-02-01T13:10:56.529Z,5
2023-02-01T13:11:56.548Z,5.33
2023-02-01T13:12:56.538Z,5.61
2023-02-01T13:13:56.546Z,5.61
2023-02-01T13:14:56.541Z,5.33
2023-02-01T13:15:56.549Z,4.72
2023-02-01T13:16:56.598Z,5.17
2023-02-01T13:17:56.541Z,4.89
2023-02-01T13:18:56.553Z,4.89